Terminal Aerodrome Forecast
Issued by NWS Omaha/Valley, NE

Home | Current Version | Previous Version | Graphics & Text | Print | Product List | Glossary On
Versions: 1 2 3 4 5 6 7 8 9 10 11 12 13 14 15 16 17 18 19 20 21 22 23 24 25 26 27 28 29 30 31 32 33 34 35 36
481
FTUS43 KOAX 152320
TAFOFK
TAF
KOFK 152320Z 1600/1624 16005KT P6SM VCSH SCT008 OVC015
      TEMPO 1600/1603 4SM -FZRAPL OVC008
     FM160400 VRB04KT 2SM -FZRA OVC005
      TEMPO 1606/1610 1 1/2SM -PL OVC003
     FM161600 02007KT 1SM -FZRAPL OVC004
     FM162100 35012KT 3/4SM -SN OVC005=

USA.gov is the U.S. government's official web portal to all federal, state and local government web resources and services.